createdAt,value
2017-06-05T00:00:20.930Z,1011.75
2017-06-05T00:02:22.812Z,1011.75
2017-06-05T00:04:24.344Z,1011.75
2017-06-05T00:06:25.914Z,1011.75
2017-06-05T00:08:27.386Z,1011.75
2017-06-05T00:10:28.845Z,1011.74
2017-06-05T00:12:30.314Z,1011.74
2017-06-05T00:14:31.747Z,1011.75
2017-06-05T00:16:33.623Z,1011.75
2017-06-05T00:18:35.106Z,1011.77
2017-06-05T00:20:37.388Z,1011.74
2017-06-05T00:22:39.266Z,1011.71
2017-06-05T00:24:40.756Z,1011.73
2017-06-05T00:26:43.535Z,1011.71
2017-06-05T00:28:45.882Z,1011.70
2017-06-05T00:30:47.516Z,1011.72
2017-06-05T00:32:48.997Z,1011.71
2017-06-05T00:34:50.443Z,1011.70
2017-06-05T00:36:52.785Z,1011.67
2017-06-05T00:38:55.199Z,1011.69
2017-06-05T00:40:56.661Z,1011.64
2017-06-05T00:42:58.125Z,1011.64
2017-06-05T00:44:59.611Z,1011.64
2017-06-05T00:47:01.992Z,1011.63
2017-06-05T00:49:03.446Z,1011.66
2017-06-05T00:51:04.906Z,1011.62
2017-06-05T00:53:06.388Z,1011.62
2017-06-05T00:55:08.404Z,1011.63
2017-06-05T00:57:09.940Z,1011.58
2017-06-05T00:59:11.806Z,1011.64
2017-06-05T01:01:13.313Z,1011.57
2017-06-05T01:03:14.758Z,1011.57
2017-06-05T01:05:16.752Z,1011.57
2017-06-05T01:07:18.649Z,1011.54
2017-06-05T01:09:20.111Z,1011.51
2017-06-05T01:11:22.008Z,1011.53
2017-06-05T01:13:24.531Z,1011.55
2017-06-05T01:15:26.038Z,1011.55
2017-06-05T01:17:28.580Z,1011.53
2017-06-05T01:19:30.045Z,1011.55
2017-06-05T01:21:31.513Z,1011.55
2017-06-05T01:23:33.006Z,1011.56
2017-06-05T01:25:34.490Z,1011.61
2017-06-05T01:27:37.053Z,1011.57
2017-06-05T01:29:39.537Z,1011.54
2017-06-05T01:31:40.985Z,1011.57
2017-06-05T01:33:43.707Z,1011.55
2017-06-05T01:35:45.243Z,1011.52
2017-06-05T01:37:47.134Z,1011.52
2017-06-05T01:39:48.602Z,1011.45
2017-06-05T01:41:50.504Z,1011.44
2017-06-05T01:43:53.024Z,1011.46
2017-06-05T01:45:54.868Z,1011.45
2017-06-05T01:47:57.892Z,1011.46
2017-06-05T01:49:59.348Z,1011.47
2017-06-05T01:52:01.305Z,1011.45
2017-06-05T01:54:03.114Z,1011.44
2017-06-05T01:56:04.986Z,1011.47
2017-06-05T01:58:07.396Z,1011.45
2017-06-05T02:00:08.930Z,1011.41
2017-06-05T02:02:10.394Z,1011.38
2017-06-05T02:04:13.115Z,1011.40
2017-06-05T02:06:14.894Z,1011.44
2017-06-05T02:08:16.384Z,1011.42
2017-06-05T02:10:17.861Z,1011.47
2017-06-05T02:12:20.312Z,1011.43
2017-06-05T02:14:22.737Z,1011.41
2017-06-05T02:16:24.184Z,1011.41
2017-06-05T02:18:26.081Z,1011.37
2017-06-05T02:20:27.971Z,1011.33
2017-06-05T02:22:29.430Z,1011.36
2017-06-05T02:24:31.833Z,1011.32
2017-06-05T02:26:33.424Z,1011.33
2017-06-05T02:28:34.886Z,1011.29
2017-06-05T02:30:36.793Z,1011.36
2017-06-05T02:32:38.286Z,1011.36
2017-06-05T02:34:40.393Z,1011.35
2017-06-05T02:36:41.860Z,1011.37
2017-06-05T02:38:43.433Z,1011.41
2017-06-05T02:40:44.887Z,1011.44
2017-06-05T02:42:47.356Z,1011.40
2017-06-05T02:44:48.825Z,1011.36
2017-06-05T02:46:50.282Z,1011.31
2017-06-05T02:48:52.797Z,1011.30
2017-06-05T02:50:54.291Z,1011.33
2017-06-05T02:52:55.716Z,1011.33
2017-06-05T02:54:57.633Z,1011.33
2017-06-05T02:56:59.976Z,1011.33
2017-06-05T02:59:01.510Z,1011.29
2017-06-05T03:01:02.970Z,1011.25
2017-06-05T03:03:04.867Z,1011.27
2017-06-05T03:05:06.336Z,1011.23
2017-06-05T03:07:07.797Z,1011.19
2017-06-05T03:09:09.289Z,1011.20
2017-06-05T03:11:10.742Z,1011.21
2017-06-05T03:13:12.191Z,1011.20
2017-06-05T03:15:13.644Z,1011.22
2017-06-05T03:17:16.220Z,1011.20
2017-06-05T03:19:18.683Z,1011.21
2017-06-05T03:21:20.164Z,1011.21
2017-06-05T03:23:22.721Z,1011.21
2017-06-05T03:25:24.369Z,1011.22
2017-06-05T03:27:25.816Z,1011.25
2017-06-05T03:29:27.298Z,1011.29
2017-06-05T03:31:29.181Z,1011.28
2017-06-05T03:33:30.636Z,1011.27
2017-06-05T03:35:33.149Z,1011.25
2017-06-05T03:37:35.603Z,1011.21
2017-06-05T03:39:37.463Z,1011.22
2017-06-05T03:41:38.896Z,1011.18
2017-06-05T03:43:40.999Z,1011.18
2017-06-05T03:45:42.483Z,1011.13
2017-06-05T03:47:43.924Z,1011.13
2017-06-05T03:49:46.625Z,1011.10
2017-06-05T03:51:48.173Z,1011.07
2017-06-05T03:53:50.690Z,1011.07
2017-06-05T03:55:52.237Z,1011.04
2017-06-05T03:57:54.760Z,1010.99
2017-06-05T03:59:56.305Z,1010.98
2017-06-05T04:01:57.775Z,1010.92
2017-06-05T04:04:00.502Z,1010.89
2017-06-05T04:06:01.972Z,1010.93
2017-06-05T04:08:04.632Z,1010.95
2017-06-05T04:10:07.012Z,1010.95
2017-06-05T04:12:08.910Z,1010.97
2017-06-05T04:14:10.642Z,1010.95
2017-06-05T04:16:12.156Z,1010.95
2017-06-05T04:18:14.122Z,1010.91
2017-06-05T04:20:16.518Z,1010.90
2017-06-05T04:22:19.071Z,1010.86
2017-06-05T04:24:20.557Z,1010.87
2017-06-05T04:26:23.071Z,1010.86
2017-06-05T04:28:25.671Z,1010.88
2017-06-05T04:30:27.125Z,1010.82
2017-06-05T04:32:29.012Z,1010.80
2017-06-05T04:34:30.515Z,1010.86
2017-06-05T04:36:31.973Z,1010.88
2017-06-05T04:38:33.769Z,1010.88
2017-06-05T04:40:35.229Z,1010.86
2017-06-05T04:42:36.889Z,1010.84
2017-06-05T04:44:38.388Z,1010.89
2017-06-05T04:46:40.828Z,1010.91
2017-06-05T04:48:42.804Z,1010.88
2017-06-05T04:50:44.301Z,1010.86
2017-06-05T04:52:46.870Z,1010.86
2017-06-05T04:54:48.691Z,1010.89
2017-06-05T04:56:50.648Z,1010.85
2017-06-05T04:58:52.149Z,1010.82
2017-06-05T05:00:54.760Z,1010.82
2017-06-05T05:02:56.546Z,1010.84
2017-06-05T05:04:58.057Z,1010.82
2017-06-05T05:06:59.538Z,1010.81
2017-06-05T05:09:00.992Z,1010.83
2017-06-05T05:11:02.471Z,1010.81
2017-06-05T05:13:04.311Z,1010.81
2017-06-05T05:15:05.785Z,1010.84
2017-06-05T05:17:08.585Z,1010.87
2017-06-05T05:19:10.031Z,1010.88
2017-06-05T05:21:12.597Z,1010.91
2017-06-05T05:23:15.050Z,1010.94
2017-06-05T05:25:16.825Z,1010.92
2017-06-05T05:27:18.286Z,1010.92
2017-06-05T05:29:19.746Z,1010.95
2017-06-05T05:31:21.235Z,1010.91
2017-06-05T05:33:22.786Z,1010.90
2017-06-05T05:35:24.658Z,1010.91
2017-06-05T05:37:26.511Z,1010.89
2017-06-05T05:39:28.382Z,1010.92
2017-06-05T05:41:29.885Z,1010.93
2017-06-05T05:43:32.297Z,1010.86
2017-06-05T05:45:33.804Z,1010.81
2017-06-05T05:47:35.737Z,1010.83
2017-06-05T05:49:37.917Z,1010.89
2017-06-05T05:51:39.401Z,1010.89
2017-06-05T05:53:40.827Z,1010.84
2017-06-05T05:55:42.317Z,1010.85
2017-06-05T05:57:44.271Z,1010.84
2017-06-05T05:59:45.722Z,1010.85
2017-06-05T06:01:47.626Z,1010.82
2017-06-05T06:03:49.671Z,1010.79
2017-06-05T06:05:51.566Z,1010.80
2017-06-05T06:07:53.048Z,1010.82
2017-06-05T06:09:55.551Z,1010.85
2017-06-05T06:11:57.550Z,1010.86
2017-06-05T06:13:59.089Z,1010.83
2017-06-05T06:16:00.569Z,1010.83
2017-06-05T06:18:02.503Z,1010.87
2017-06-05T06:20:04.409Z,1010.89
2017-06-05T06:22:06.266Z,1010.90
2017-06-05T06:24:07.774Z,1010.86
2017-06-05T06:26:09.256Z,1010.87
2017-06-05T06:28:11.153Z,1010.90
2017-06-05T06:30:13.660Z,1010.88
2017-06-05T06:32:15.524Z,1010.83
2017-06-05T06:34:17.097Z,1010.74
2017-06-05T06:36:18.525Z,1010.72
2017-06-05T06:38:21.127Z,1010.72
2017-06-05T06:40:22.634Z,1010.73
2017-06-05T06:42:24.497Z,1010.71
2017-06-05T06:44:26.914Z,1010.70
2017-06-05T06:46:28.450Z,1010.75
2017-06-05T06:48:31.059Z,1010.73
2017-06-05T06:50:32.989Z,1010.77
2017-06-05T06:52:34.915Z,1010.68
2017-06-05T06:54:36.442Z,1010.72
2017-06-05T06:56:38.487Z,1010.73
2017-06-05T06:58:40.752Z,1010.67
2017-06-05T07:00:42.242Z,1010.64
2017-06-05T07:02:43.740Z,1010.65
2017-06-05T07:04:45.241Z,1010.66
2017-06-05T07:06:46.709Z,1010.64
2017-06-05T07:08:48.201Z,1010.67
2017-06-05T07:10:49.691Z,1010.67
2017-06-05T07:12:51.236Z,1010.69
2017-06-05T07:14:52.749Z,1010.72
2017-06-05T07:16:55.116Z,1010.76
2017-06-05T07:18:57.110Z,1010.76
2017-06-05T07:20:58.619Z,1010.78
2017-06-05T07:23:00.089Z,1010.80
2017-06-05T07:25:01.548Z,1010.76
2017-06-05T07:27:03.497Z,1010.74
2017-06-05T07:29:04.999Z,1010.73
2017-06-05T07:31:06.473Z,1010.68
2017-06-05T07:33:07.982Z,1010.66
2017-06-05T07:35:09.474Z,1010.61
2017-06-05T07:37:10.953Z,1010.61
2017-06-05T07:39:13.738Z,1010.55
2017-06-05T07:41:15.258Z,1010.54
2017-06-05T07:43:17.839Z,1010.54
2017-06-05T07:45:19.365Z,1010.56
2017-06-05T07:47:20.850Z,1010.52
2017-06-05T07:49:22.804Z,1010.56
2017-06-05T07:51:24.696Z,1010.60
2017-06-05T07:53:27.116Z,1010.51
2017-06-05T07:55:28.575Z,1010.49
2017-06-05T07:57:30.052Z,1010.51
2017-06-05T07:59:31.574Z,1010.47
2017-06-05T08:01:34.004Z,1010.50
2017-06-05T08:03:35.529Z,1010.51
2017-06-05T08:05:37.045Z,1010.46
2017-06-05T08:07:39.635Z,1010.44
2017-06-05T08:09:41.516Z,1010.38
2017-06-05T08:11:43.426Z,1010.37
2017-06-05T08:13:44.984Z,1010.37
2017-06-05T08:15:46.860Z,1010.40
2017-06-05T08:17:49.593Z,1010.38
2017-06-05T08:19:52.315Z,1010.37
2017-06-05T08:21:55.033Z,1010.29
2017-06-05T08:23:57.112Z,1010.28
2017-06-05T08:25:58.566Z,1010.30
2017-06-05T08:28:00.489Z,1010.27
2017-06-05T08:30:02.014Z,1010.27
2017-06-05T08:32:04.484Z,1010.23
2017-06-05T08:34:05.974Z,1010.23
2017-06-05T08:36:08.114Z,1010.23
2017-06-05T08:38:09.590Z,1010.24
2017-06-05T08:40:11.060Z,1010.18
2017-06-05T08:42:12.928Z,1010.16
2017-06-05T08:44:14.395Z,1010.11
2017-06-05T08:46:16.968Z,1010.13
2017-06-05T08:48:18.372Z,1010.11
2017-06-05T08:50:19.865Z,1010.06
2017-06-05T08:52:22.712Z,1010.04
2017-06-05T08:54:24.189Z,1010.03
2017-06-05T08:56:25.840Z,1009.99
2017-06-05T08:58:27.334Z,1009.95
2017-06-05T09:00:29.984Z,1009.90
2017-06-05T09:02:32.935Z,1009.83
2017-06-05T09:04:34.406Z,1009.87
2017-06-05T09:06:37.150Z,1009.91
2017-06-05T09:08:38.961Z,1009.87
2017-06-05T09:10:40.436Z,1009.84
2017-06-05T09:12:41.936Z,1009.81
2017-06-05T09:14:43.743Z,1009.81
2017-06-05T09:16:46.665Z,1009.79
2017-06-05T09:18:48.592Z,1009.75
2017-06-05T09:20:50.068Z,1009.73
2017-06-05T09:22:52.921Z,1009.69
2017-06-05T09:24:54.421Z,1009.58
2017-06-05T09:26:57.287Z,1009.56
2017-06-05T09:28:58.736Z,1009.56
2017-06-05T09:31:00.635Z,1009.51
2017-06-05T09:33:02.794Z,1009.47
2017-06-05T09:35:04.322Z,1009.47
2017-06-05T09:37:06.698Z,1009.39
2017-06-05T09:39:08.147Z,1009.34
2017-06-05T09:41:10.664Z,1009.35
2017-06-05T09:43:12.704Z,1009.34
2017-06-05T09:45:15.335Z,1009.35
2017-06-05T09:47:16.816Z,1009.30
2017-06-05T09:49:18.722Z,1009.28
2017-06-05T09:51:20.271Z,1009.27
2017-06-05T09:53:21.745Z,1009.31
2017-06-05T09:55:23.219Z,1009.29
2017-06-05T09:57:24.729Z,1009.26
2017-06-05T09:59:27.363Z,1009.29
2017-06-05T10:01:28.865Z,1009.25
2017-06-05T10:03:31.265Z,1009.23
2017-06-05T10:05:33.426Z,1009.28
2017-06-05T10:07:36.400Z,1009.26
2017-06-05T10:09:37.878Z,1009.21
2017-06-05T10:11:39.368Z,1009.22
2017-06-05T10:13:40.859Z,1009.21
2017-06-05T10:15:42.371Z,1009.18
2017-06-05T10:17:43.839Z,1009.15
2017-06-05T10:19:45.337Z,1009.08
2017-06-05T10:21:47.862Z,1009.13
2017-06-05T10:23:50.316Z,1009.07
2017-06-05T10:25:51.772Z,1009.05
2017-06-05T10:27:53.261Z,1009.03
2017-06-05T10:29:54.806Z,1009.06
2017-06-05T10:31:56.335Z,1009.05
2017-06-05T10:33:58.210Z,1008.92
2017-06-05T10:36:01.077Z,1008.91
2017-06-05T10:38:02.613Z,1008.91
2017-06-05T10:40:05.213Z,1008.86
2017-06-05T10:42:07.092Z,1008.86
2017-06-05T10:44:08.616Z,1008.88
2017-06-05T10:46:10.648Z,1008.97
2017-06-05T10:48:12.165Z,1008.88
2017-06-05T10:50:14.034Z,1008.85
2017-06-05T10:52:15.521Z,1008.79
2017-06-05T10:54:16.989Z,1008.81
2017-06-05T10:56:18.456Z,1008.81
2017-06-05T10:58:20.366Z,1008.77
2017-06-05T11:00:23.447Z,1008.79
2017-06-05T11:02:26.393Z,1008.76
2017-06-05T11:04:27.715Z,1008.76
2017-06-05T11:06:29.237Z,1008.74
2017-06-05T11:08:30.757Z,1008.71
2017-06-05T11:10:32.249Z,1008.66
2017-06-05T11:12:33.723Z,1008.63
2017-06-05T11:14:35.638Z,1008.61
2017-06-05T11:16:38.935Z,1008.61
2017-06-05T11:18:40.857Z,1008.65
2017-06-05T11:20:42.397Z,1008.61
2017-06-05T11:22:43.892Z,1008.58
2017-06-05T11:24:45.787Z,1008.57
2017-06-05T11:26:47.342Z,1008.53
2017-06-05T11:28:48.870Z,1008.50
2017-06-05T11:30:51.414Z,1008.54
2017-06-05T11:32:54.132Z,1008.46
2017-06-05T11:34:56.509Z,1008.47
2017-06-05T11:36:58.104Z,1008.47
2017-06-05T11:39:00.923Z,1008.41
2017-06-05T11:41:02.453Z,1008.47
2017-06-05T11:43:05.187Z,1008.43
2017-06-05T11:45:07.943Z,1008.41
2017-06-05T11:47:09.543Z,1008.37
2017-06-05T11:49:12.653Z,1008.35
2017-06-05T11:51:14.060Z,1008.35
2017-06-05T11:53:15.575Z,1008.29
2017-06-05T11:55:17.055Z,1008.26
2017-06-05T11:57:18.528Z,1008.23
2017-06-05T11:59:20.355Z,1008.21
2017-06-05T12:01:21.825Z,1008.24
2017-06-05T12:03:23.255Z,1008.18
2017-06-05T12:05:25.059Z,1008.21
2017-06-05T12:07:28.090Z,1008.17
2017-06-05T12:09:29.607Z,1008.12
2017-06-05T12:11:32.335Z,1008.14
2017-06-05T12:13:33.859Z,1008.10
2017-06-05T12:15:35.366Z,1008.10
2017-06-05T12:17:37.169Z,1008.07
2017-06-05T12:19:38.664Z,1008.08
2017-06-05T12:21:40.187Z,1008.07
2017-06-05T12:23:43.226Z,1008.02
2017-06-05T12:25:45.919Z,1008.08
2017-06-05T12:27:47.534Z,1007.99
2017-06-05T12:29:49.037Z,1008.04
2017-06-05T12:31:50.988Z,1008.06
2017-06-05T12:33:52.511Z,1008.10
2017-06-05T12:35:54.031Z,1008.07
2017-06-05T12:37:55.535Z,1008.06
2017-06-05T12:39:58.542Z,1008.02
2017-06-05T12:42:01.585Z,1008.02
2017-06-05T12:44:04.690Z,1008.01
2017-06-05T12:46:07.325Z,1007.97
2017-06-05T12:48:08.689Z,1008.00
2017-06-05T12:50:10.544Z,1007.94
2017-06-05T12:52:12.021Z,1007.95
2017-06-05T12:54:13.482Z,1007.93
2017-06-05T12:56:14.968Z,1007.90
2017-06-05T12:58:17.826Z,1007.86
2017-06-05T13:00:19.290Z,1007.82
2017-06-05T13:02:20.803Z,1007.81
2017-06-05T13:04:24.113Z,1007.71
2017-06-05T13:06:25.548Z,1007.75
2017-06-05T13:08:27.042Z,1007.68
2017-06-05T13:10:28.514Z,1007.62
2017-06-05T13:12:30.424Z,1007.63
2017-06-05T13:14:33.044Z,1007.59
2017-06-05T13:16:34.569Z,1007.53
2017-06-05T13:18:36.424Z,1007.49
2017-06-05T13:20:38.275Z,1007.54
2017-06-05T13:22:40.065Z,1007.53
2017-06-05T13:24:41.527Z,1007.38
2017-06-05T13:26:43.026Z,1007.39
2017-06-05T13:28:44.528Z,1007.39
2017-06-05T13:30:46.026Z,1007.38
2017-06-05T13:32:49.280Z,1007.45
2017-06-05T13:34:50.667Z,1007.41
2017-06-05T13:36:53.359Z,1007.39
2017-06-05T13:38:54.879Z,1007.39
2017-06-05T13:40:56.737Z,1007.40
2017-06-05T13:42:59.903Z,1007.39
2017-06-05T13:45:01.428Z,1007.36
2017-06-05T13:47:03.269Z,1007.34
2017-06-05T13:49:04.768Z,1007.30
2017-06-05T13:51:08.111Z,1007.27
2017-06-05T13:53:09.489Z,1007.24
2017-06-05T13:55:12.715Z,1007.15
2017-06-05T13:57:14.612Z,1007.14
2017-06-05T13:59:18.053Z,1007.10
2017-06-05T14:01:19.640Z,1007.11
2017-06-05T14:03:21.161Z,1007.10
2017-06-05T14:05:22.681Z,1007.01
2017-06-05T14:07:24.195Z,1006.98
2017-06-05T14:09:25.667Z,1007.01
2017-06-05T14:11:27.220Z,1006.99
2017-06-05T14:13:28.683Z,1007.00
2017-06-05T14:15:32.100Z,1006.92
2017-06-05T14:17:33.462Z,1006.90
2017-06-05T14:19:34.958Z,1006.90
2017-06-05T14:21:36.443Z,1006.85
2017-06-05T14:23:37.956Z,1006.84
2017-06-05T14:25:41.425Z,1006.80
2017-06-05T14:27:42.788Z,1006.74
2017-06-05T14:29:44.678Z,1006.75
2017-06-05T14:31:47.709Z,1006.73
2017-06-05T14:33:49.294Z,1006.72
2017-06-05T14:35:52.397Z,1006.78
2017-06-05T14:37:53.799Z,1006.74
2017-06-05T14:39:55.335Z,1006.77
2017-06-05T14:41:56.806Z,1006.75
2017-06-05T14:43:58.277Z,1006.66
2017-06-05T14:45:59.747Z,1006.70
2017-06-05T14:48:02.989Z,1006.66
2017-06-05T14:50:06.523Z,1006.66
2017-06-05T14:52:07.987Z,1006.67
2017-06-05T14:54:09.708Z,1006.62
2017-06-05T14:56:11.661Z,1006.57
2017-06-05T14:58:15.109Z,1006.59
2017-06-05T15:00:17.018Z,1006.54
2017-06-05T15:02:18.875Z,1006.49
2017-06-05T15:04:20.377Z,1006.47
2017-06-05T15:06:22.216Z,1006.41
2017-06-05T15:08:23.704Z,1006.39
2017-06-05T15:10:25.238Z,1006.44
2017-06-05T15:12:27.061Z,1006.36
2017-06-05T15:14:28.630Z,1006.36
2017-06-05T15:16:30.088Z,1006.25
2017-06-05T15:18:31.612Z,1006.28
2017-06-05T15:20:33.501Z,1006.25
2017-06-05T15:22:36.782Z,1006.21
2017-06-05T15:24:38.368Z,1006.19
2017-06-05T15:26:40.521Z,1006.20
2017-06-05T15:28:43.670Z,1006.16
2017-06-05T15:30:45.100Z,1006.15
2017-06-05T15:32:46.601Z,1006.12
2017-06-05T15:34:49.269Z,1006.16
2017-06-05T15:37:34.252Z,1006.11
2017-06-05T15:39:35.889Z,1006.08
2017-06-05T15:41:40.411Z,1006.03
2017-06-05T15:44:25.978Z,1005.96
2017-06-05T15:47:10.291Z,1005.92
2017-06-05T15:49:12.623Z,1005.91
2017-06-05T15:51:15.137Z,1005.88
2017-06-05T15:53:16.855Z,1005.86
2017-06-05T15:55:18.429Z,1005.81
2017-06-05T15:57:20.317Z,1005.79
2017-06-05T15:59:21.962Z,1005.77
2017-06-05T16:01:23.787Z,1005.73
2017-06-05T16:03:25.626Z,1005.66
2017-06-05T16:05:27.573Z,1005.71
2017-06-05T16:07:29.526Z,1005.66
2017-06-05T16:09:31.682Z,1005.67
2017-06-05T16:11:33.618Z,1005.66
2017-06-05T16:13:35.565Z,1005.62
2017-06-05T16:15:37.513Z,1005.55
2017-06-05T16:17:39.465Z,1005.53
2017-06-05T16:19:41.495Z,1005.45
2017-06-05T16:21:43.311Z,1005.45
2017-06-05T16:23:45.367Z,1005.46
2017-06-05T16:26:28.164Z,1005.44
2017-06-05T16:28:32.809Z,1005.42
2017-06-05T16:31:18.724Z,1005.38
2017-06-05T16:34:01.583Z,1005.39
2017-06-05T16:36:03.274Z,1005.38
2017-06-05T16:38:04.778Z,1005.32
2017-06-05T16:40:08.113Z,1005.30
2017-06-05T16:42:10.082Z,1005.28
2017-06-05T16:44:11.747Z,1005.27
2017-06-05T16:46:13.440Z,1005.22
2017-06-05T16:48:14.972Z,1005.19
2017-06-05T16:50:17.464Z,1005.16
2017-06-05T16:52:19.272Z,1005.15
2017-06-05T16:54:20.974Z,1005.12
2017-06-05T16:56:23.582Z,1005.12
2017-06-05T16:58:25.198Z,1005.07
2017-06-05T17:00:26.963Z,1005.06
2017-06-05T17:02:28.787Z,1005.07
2017-06-05T17:04:30.227Z,1005.05
2017-06-05T17:06:31.727Z,1005.01
2017-06-05T17:08:33.178Z,1004.99
2017-06-05T17:10:34.639Z,1004.95
2017-06-05T17:12:36.101Z,1004.91
2017-06-05T17:14:38.492Z,1004.90
2017-06-05T17:16:40.067Z,1004.90
2017-06-05T17:18:41.533Z,1004.84
2017-06-05T17:20:43.101Z,1004.87
2017-06-05T17:22:44.568Z,1004.84
2017-06-05T17:24:46.053Z,1004.80
2017-06-05T17:26:48.580Z,1004.81
2017-06-05T17:28:50.191Z,1004.77
2017-06-05T17:30:51.709Z,1004.71
2017-06-05T17:32:53.267Z,1004.70
2017-06-05T17:34:54.825Z,1004.67
2017-06-05T17:36:56.362Z,1004.69
2017-06-05T17:38:58.723Z,1004.69
2017-06-05T17:41:01.040Z,1004.66
2017-06-05T17:43:03.552Z,1004.56
2017-06-05T17:45:05.842Z,1004.58
2017-06-05T17:47:07.325Z,1004.58
2017-06-05T17:49:09.751Z,1004.57
2017-06-05T17:51:11.399Z,1004.58
2017-06-05T17:53:13.166Z,1004.54
2017-06-05T17:55:14.681Z,1004.53
2017-06-05T17:57:16.195Z,1004.54
2017-06-05T17:59:18.621Z,1004.51
2017-06-05T18:01:20.247Z,1004.48
2017-06-05T18:03:21.760Z,1004.44
2017-06-05T18:05:23.199Z,1004.45
2017-06-05T18:07:24.638Z,1004.46
2017-06-05T18:09:26.075Z,1004.40
2017-06-05T18:11:27.516Z,1004.40
2017-06-05T18:13:28.951Z,1004.36
2017-06-05T18:15:30.390Z,1004.32
2017-06-05T18:17:31.829Z,1004.33
2017-06-05T18:19:33.272Z,1004.35
2017-06-05T18:21:34.710Z,1004.32
2017-06-05T18:23:36.148Z,1004.29
2017-06-05T18:25:37.587Z,1004.28
2017-06-05T18:27:39.024Z,1004.27
2017-06-05T18:29:41.493Z,1004.25
2017-06-05T18:31:43.109Z,1004.24
2017-06-05T18:33:44.581Z,1004.21
2017-06-05T18:35:46.068Z,1004.23
2017-06-05T18:37:47.503Z,1004.21
2017-06-05T18:39:48.939Z,1004.19
2017-06-05T18:41:50.375Z,1004.13
2017-06-05T18:43:51.810Z,1004.12
2017-06-05T18:45:54.422Z,1004.17
2017-06-05T18:47:56.190Z,1004.12
2017-06-05T18:49:58.623Z,1004.12
2017-06-05T18:52:00.105Z,1004.08
2017-06-05T18:54:01.611Z,1004.07
2017-06-05T18:56:03.058Z,1004.08
2017-06-05T18:58:04.526Z,1004.05
2017-06-05T19:00:06.293Z,1004.04
2017-06-05T19:02:08.069Z,1004.01
2017-06-05T19:04:09.635Z,1003.98
2017-06-05T19:06:12.046Z,1003.97
2017-06-05T19:08:13.627Z,1003.94
2017-06-05T19:10:15.131Z,1003.99
2017-06-05T19:12:16.849Z,1003.96
2017-06-05T19:14:18.286Z,1004.01
2017-06-05T19:16:19.778Z,1003.99
2017-06-05T19:18:21.653Z,1003.92
2017-06-05T19:20:23.861Z,1003.93
2017-06-05T19:22:25.357Z,1003.89
2017-06-05T19:24:27.720Z,1003.90
2017-06-05T19:26:29.531Z,1003.86
2017-06-05T19:28:32.218Z,1003.84
2017-06-05T19:30:36.924Z,1003.83
2017-06-05T19:32:38.738Z,1003.79
2017-06-05T19:34:41.778Z,1003.78
2017-06-05T19:36:43.513Z,1003.79
2017-06-05T19:38:45.393Z,1003.81
2017-06-05T19:40:47.108Z,1003.79
2017-06-05T19:42:48.864Z,1003.74
2017-06-05T19:44:50.631Z,1003.74
2017-06-05T19:46:52.547Z,1003.70
2017-06-05T19:48:54.292Z,1003.72
2017-06-05T19:50:56.123Z,1003.68
2017-06-05T19:52:57.928Z,1003.72
2017-06-05T19:54:59.767Z,1003.70
2017-06-05T19:57:02.262Z,1003.67
2017-06-05T19:59:04.045Z,1003.64
2017-06-05T20:01:05.875Z,1003.63
2017-06-05T20:03:07.679Z,1003.62
2017-06-05T20:05:09.185Z,1003.60
2017-06-05T20:07:11.613Z,1003.57
2017-06-05T20:09:13.306Z,1003.57
2017-06-05T20:11:14.811Z,1003.58
2017-06-05T20:13:16.825Z,1003.52
2017-06-05T20:15:18.340Z,1003.47
2017-06-05T20:17:19.815Z,1003.46
2017-06-05T20:19:21.427Z,1003.46
2017-06-05T20:21:22.968Z,1003.46
2017-06-05T20:23:24.790Z,1003.45
2017-06-05T20:25:26.802Z,1003.44
2017-06-05T20:27:28.689Z,1003.41
2017-06-05T20:29:30.713Z,1003.37
2017-06-05T20:31:32.623Z,1003.34
2017-06-05T20:33:34.166Z,1003.32
2017-06-05T20:35:36.127Z,1003.36
2017-06-05T20:37:38.176Z,1003.28
2017-06-05T20:39:39.934Z,1003.32
2017-06-05T20:41:42.737Z,1003.27
2017-06-05T20:43:44.593Z,1003.22
2017-06-05T20:45:46.984Z,1003.21
2017-06-05T20:47:48.506Z,1003.16
2017-06-05T20:49:50.508Z,1003.14
2017-06-05T20:51:52.363Z,1003.13
2017-06-05T20:53:54.223Z,1003.08
2017-06-05T20:55:56.139Z,1003.04
2017-06-05T20:57:58.117Z,1003.03
2017-06-05T21:00:00.059Z,1003.02
2017-06-05T21:02:01.848Z,1003.01
2017-06-05T21:04:03.641Z,1002.97
2017-06-05T21:06:05.331Z,1002.98
2017-06-05T21:08:07.063Z,1002.95
2017-06-05T21:10:08.919Z,1002.88
2017-06-05T21:12:10.568Z,1002.88
2017-06-05T21:14:12.206Z,1002.84
2017-06-05T21:16:13.817Z,1002.83
2017-06-05T21:18:15.728Z,1002.83
2017-06-05T21:20:17.642Z,1002.77
2017-06-05T21:22:19.339Z,1002.77
2017-06-05T21:24:21.003Z,1002.73
2017-06-05T21:26:22.876Z,1002.69
2017-06-05T21:28:24.609Z,1002.64
2017-06-05T21:30:26.372Z,1002.62
2017-06-05T21:32:28.064Z,1002.64
2017-06-05T21:34:29.989Z,1002.61
2017-06-05T21:36:31.794Z,1002.54
2017-06-05T21:38:33.334Z,1002.52
2017-06-05T21:40:35.281Z,1002.47
2017-06-05T21:42:36.959Z,1002.45
2017-06-05T21:44:38.830Z,1002.42
2017-06-05T21:46:40.708Z,1002.36
2017-06-05T21:48:42.431Z,1002.34
2017-06-05T21:50:44.124Z,1002.28
2017-06-05T21:52:46.018Z,1002.26
2017-06-05T21:54:47.864Z,1002.24
2017-06-05T21:56:49.700Z,1002.23
2017-06-05T21:58:51.375Z,1002.18
2017-06-05T22:00:53.031Z,1002.08
2017-06-05T22:02:54.696Z,1002.04
2017-06-05T22:04:56.260Z,1002.04
2017-06-05T22:06:57.995Z,1002.01
2017-06-05T22:08:59.666Z,1002.02
2017-06-05T22:11:01.541Z,1002.02
2017-06-05T22:13:03.521Z,1001.97
2017-06-05T22:15:05.136Z,1001.91
2017-06-05T22:17:07.044Z,1001.84
2017-06-05T22:19:08.982Z,1001.89
2017-06-05T22:21:10.602Z,1001.85
2017-06-05T22:23:12.391Z,1001.78
2017-06-05T22:25:14.311Z,1001.75
2017-06-05T22:27:16.173Z,1001.70
2017-06-05T22:29:17.737Z,1001.68
2017-06-05T22:31:19.396Z,1001.67
2017-06-05T22:33:21.343Z,1001.62
2017-06-05T22:35:22.970Z,1001.59
2017-06-05T22:37:24.713Z,1001.50
2017-06-05T22:39:26.654Z,1001.51
2017-06-05T22:41:28.529Z,1001.46
2017-06-05T22:43:30.254Z,1001.47
2017-06-05T22:45:32.119Z,1001.48
2017-06-05T22:47:33.639Z,1001.40
2017-06-05T22:49:35.167Z,1001.39
2017-06-05T22:51:36.846Z,1001.33
2017-06-05T22:53:38.858Z,1001.32
2017-06-05T22:55:40.478Z,1001.30
2017-06-05T22:57:42.086Z,1001.33
2017-06-05T22:59:43.626Z,1001.25
2017-06-05T23:01:45.293Z,1001.17
2017-06-05T23:03:47.190Z,1001.14
2017-06-05T23:05:49.036Z,1001.10
2017-06-05T23:07:50.888Z,1001.08
2017-06-05T23:09:52.466Z,1001.05
2017-06-05T23:11:54.031Z,1001.09
2017-06-05T23:13:55.902Z,1001.04
2017-06-05T23:15:57.724Z,1001.03
2017-06-05T23:17:59.646Z,1001.02
2017-06-05T23:20:01.230Z,1000.91
2017-06-05T23:22:02.970Z,1000.91
2017-06-05T23:24:04.543Z,1000.88
2017-06-05T23:26:06.425Z,1000.82
2017-06-05T23:28:08.225Z,1000.80
2017-06-05T23:30:09.993Z,1000.76
2017-06-05T23:32:11.933Z,1000.76
2017-06-05T23:34:13.631Z,1000.72
2017-06-05T23:36:15.170Z,1000.71
2017-06-05T23:38:16.821Z,1000.69
2017-06-05T23:40:18.506Z,1000.66
2017-06-05T23:42:20.451Z,1000.61
2017-06-05T23:44:22.285Z,1000.60
2017-06-05T23:46:23.845Z,1000.57
2017-06-05T23:48:25.448Z,1000.51
2017-06-05T23:50:27.356Z,1000.50
2017-06-05T23:52:28.869Z,1000.44
2017-06-05T23:54:30.562Z,1000.49
2017-06-05T23:56:32.211Z,1000.44
2017-06-05T23:58:33.692Z,1000.43
